Thursday, November 15, 2018, 1:58 AM GMT
Back to Local

CXBO, Beauport CS, Que.

Location: , , Canada Lat: 46.833
Local Time: 1:58 AM GMT ( 1:58 GMT) Lon: -71.2
Time Zone: GMT Elev: 32 ft

Show me the last for .
Show Coded

Time T Td Feel RH Dir Speed Gust Alt SLP Vis Weather Sky Remarks
2018-11-15 01:00 - - - 0 250° 10 17 - - 0 Peak wind: 23 mph (20 kts) from 250° at 05 min
2018-11-15 00:00 - - - 0 250° 16 23 - - 0 Peak wind: 24 mph (21 kts) from 240° at 10 min
2018-11-14 23:00 - - - 0 250° 15 21 - - 0 Peak wind: 23 mph (20 kts) from 250° at 12 min
2018-11-14 22:00 - - - 0 250° 14 - - - 0 Peak wind: 21 mph (19 kts) from 260° at 48 min
2018-11-14 21:00 - - - 0 260° 14 22 - - 0 Peak wind: 21 mph (19 kts) from 270° at 59 min
2018-11-14 20:00 - - - 0 270° 15 25 - - 0 Peak wind: 27 mph (24 kts) from 270° at 49 min
2018-11-14 19:00 - - - 0 270° 18 29 - - 0 Peak wind: 31 mph (27 kts) from 280° at 18 min
2018-11-14 18:00 - - - 0 260° 18 25 - - 0 Peak wind: 28 mph (25 kts) from 260° at 02 min
2018-11-14 17:00 - - - 0 260° 18 31 - - 0 Peak wind: 31 mph (27 kts) from 270° at 55 min
2018-11-14 16:00 - - - 0 260° 16 24 - - 0 Peak wind: 27 mph (24 kts) from 280° at 33 min
2018-11-14 15:00 - - - 0 260° 15 25 - - 0 Peak wind: 25 mph (22 kts) from 270° at 51 min
2018-11-14 14:00 - - - 0 260° 15 22 - - 0 Peak wind: 27 mph (24 kts) from 280° at 24 min
2018-11-14 13:00 - - - 0 260° 16 24 - - 0 Peak wind: 24 mph (21 kts) from 260° at 17 min
2018-11-14 12:00 - - - 0 260° 16 23 - - 0 Peak wind: 27 mph (24 kts) from 280° at 19 min
2018-11-14 11:00 - - - 0 260° 13 21 - - 0 Peak wind: 20 mph (18 kts) from 260° at 40 min
2018-11-14 10:00 - - - 0 260° 13 21 - - 0 Peak wind: 24 mph (21 kts) from 260° at 01 min
2018-11-14 09:00 - - - 0 260° 15 24 - - 0 Peak wind: 25 mph (22 kts) from 270° at 27 min
2018-11-14 08:00 - - - 0 270° 14 22 - - 0 Peak wind: 26 mph (23 kts) from 270° at 11 min
2018-11-14 07:00 - - - 0 260° 16 24 - - 0 Peak wind: 26 mph (23 kts) from 240° at 22 min
2018-11-14 06:00 - - - 0 270° 15 23 - - 0 Peak wind: 28 mph (25 kts) from 270° at 38 min
2018-11-14 05:00 - - - 0 270° 13 20 - - 0 Peak wind: 31 mph (27 kts) from 290° at 15 min
2018-11-14 04:00 - - - 0 280° 12 23 - - 0 Peak wind: 27 mph (24 kts) from 280° at 47 min
2018-11-14 03:00 - - - 0 260° 15 23 - - 0 Peak wind: 24 mph (21 kts) from 290° at 06 min
2018-11-14 02:00 - - - 0 260° 13 20 - - 0 Peak wind: 25 mph (22 kts) from 270° at 39 min

Support USWX by starting your Amazon purchase here.